createdAt,value
2022-08-09T00:00:57.483Z,19.06
2022-08-09T00:04:08.509Z,19.08
2022-08-09T00:06:22.878Z,19.07
2022-08-09T00:08:51.832Z,18.98
2022-08-09T00:11:25.196Z,18.96
2022-08-09T00:13:55.712Z,18.97
2022-08-09T00:16:26.190Z,18.97
2022-08-09T00:19:09.437Z,19.01
2022-08-09T00:21:43.120Z,19.02
2022-08-09T00:24:24.437Z,19.04
2022-08-09T00:26:52.381Z,19.05
2022-08-09T00:30:16.093Z,19.07
2022-08-09T00:32:07.986Z,19.03
2022-08-09T00:34:40.351Z,18.98
2022-08-09T00:37:21.722Z,19.04
2022-08-09T00:40:13.364Z,19.07
2022-08-09T00:44:19.800Z,19.06
2022-08-09T00:45:24.741Z,19.03
2022-08-09T00:47:53.194Z,19.04
2022-08-09T00:50:23.458Z,18.98
2022-08-09T00:52:51.242Z,18.92
2022-08-09T00:56:03.052Z,18.86
2022-08-09T00:58:06.549Z,18.72
2022-08-09T01:00:39.628Z,18.59
2022-08-09T01:03:16.436Z,18.47
2022-08-09T01:05:58.639Z,18.40
2022-08-09T01:08:52.649Z,18.31
2022-08-09T01:11:55.656Z,18.17
2022-08-09T01:14:33.964Z,18.10
2022-08-09T01:17:11.081Z,18.03
2022-08-09T01:20:01.530Z,17.99
2022-08-09T01:23:12.408Z,17.97
2022-08-09T01:26:16.531Z,17.93
2022-08-09T01:28:49.119Z,18.05
2022-08-09T01:32:28.110Z,18.10
2022-08-09T01:34:13.887Z,18.13
2022-08-09T01:36:46.407Z,18.14
2022-08-09T01:39:17.641Z,18.13
2022-08-09T01:41:59.793Z,18.22
2022-08-09T01:44:34.402Z,18.20
2022-08-09T01:47:04.216Z,18.23
2022-08-09T01:49:39.041Z,18.28
2022-08-09T01:52:14.552Z,18.27
2022-08-09T01:54:56.474Z,18.33
2022-08-09T01:57:45.808Z,18.35
2022-08-09T02:00:35.605Z,18.39
2022-08-09T02:03:04.422Z,18.39
2022-08-09T02:05:53.458Z,18.35
2022-08-09T02:08:39.435Z,18.29
2022-08-09T02:11:17.227Z,18.19
2022-08-09T02:13:55.280Z,18.20
2022-08-09T02:16:53.284Z,18.20
2022-08-09T02:19:38.769Z,18.15
2022-08-09T02:22:16.131Z,18.14
2022-08-09T02:24:51.731Z,18.18
2022-08-09T02:27:27.464Z,18.17
2022-08-09T02:30:15.862Z,18.12
2022-08-09T02:32:49.322Z,18.11
2022-08-09T02:36:01.623Z,18.08
2022-08-09T02:38:28.709Z,18.07
2022-08-09T02:41:02.958Z,17.97
2022-08-09T02:43:42.634Z,17.92
2022-08-09T02:46:27.380Z,17.91
2022-08-09T02:48:59.906Z,17.90
2022-08-09T02:51:36.967Z,17.91
2022-08-09T02:54:10.079Z,17.88
2022-08-09T02:56:39.042Z,17.80
2022-08-09T02:59:14.857Z,17.87
2022-08-09T03:02:06.033Z,17.84
2022-08-09T03:04:37.594Z,17.84
2022-08-09T03:07:12.155Z,17.79
2022-08-09T03:09:42.857Z,17.78
2022-08-09T03:12:13.425Z,17.78
2022-08-09T03:14:44.036Z,17.71
2022-08-09T03:17:20.309Z,17.71
2022-08-09T03:20:00.452Z,17.68
2022-08-09T03:22:41.448Z,17.68
2022-08-09T03:25:26.379Z,17.63
2022-08-09T03:28:00.266Z,17.55
2022-08-09T03:30:34.015Z,17.43
2022-08-09T03:33:17.645Z,17.37
2022-08-09T03:36:13.536Z,17.34
2022-08-09T03:38:42.050Z,17.24
2022-08-09T03:41:16.308Z,17.15
2022-08-09T03:44:03.454Z,17.14
2022-08-09T03:46:35.213Z,17.07
2022-08-09T03:49:08.320Z,17.05
2022-08-09T03:51:57.535Z,17.04
2022-08-09T03:54:31.132Z,17.06
2022-08-09T03:57:04.499Z,16.98
2022-08-09T03:59:54.424Z,16.91
2022-08-09T04:02:26.581Z,16.90
2022-08-09T04:04:57.263Z,16.87
2022-08-09T04:07:47.440Z,16.84
2022-08-09T04:10:28.414Z,16.81
2022-08-09T04:13:03.938Z,16.79
2022-08-09T04:16:17.912Z,16.74
2022-08-09T04:18:21.255Z,16.73
2022-08-09T04:20:49.940Z,16.74
2022-08-09T04:23:24.346Z,16.77
2022-08-09T04:25:53.041Z,16.82
2022-08-09T04:28:33.547Z,16.87
2022-08-09T04:31:10.079Z,16.89
2022-08-09T04:33:52.258Z,17.05
2022-08-09T04:36:26.039Z,17.13
2022-08-09T04:38:55.094Z,17.24
2022-08-09T04:41:31.972Z,17.46
2022-08-09T04:44:07.368Z,17.68
2022-08-09T04:46:58.705Z,17.90
2022-08-09T04:49:52.778Z,18.12
2022-08-09T04:52:26.127Z,18.34
2022-08-09T04:54:58.990Z,18.53
2022-08-09T04:57:27.220Z,18.76
2022-08-09T05:00:16.598Z,19.02
2022-08-09T05:02:48.672Z,19.39
2022-08-09T05:05:32.109Z,19.78
2022-08-09T05:08:13.963Z,20.25
2022-08-09T05:10:43.461Z,21.00
2022-08-09T05:13:14.786Z,21.55
2022-08-09T05:15:48.080Z,22.12
2022-08-09T05:18:38.363Z,22.52
2022-08-09T05:21:13.333Z,22.73
2022-08-09T05:23:57.874Z,23.46
2022-08-09T05:26:45.612Z,23.58
2022-08-09T05:29:21.081Z,24.09
2022-08-09T05:31:59.089Z,24.71
2022-08-09T05:34:33.203Z,25.30
2022-08-09T05:37:11.352Z,25.99
2022-08-09T05:39:43.397Z,26.26
2022-08-09T05:42:17.509Z,26.54
2022-08-09T05:44:50.630Z,26.47
2022-08-09T05:47:21.529Z,26.31
2022-08-09T05:50:30.835Z,27.00
2022-08-09T05:52:40.050Z,27.09
2022-08-09T05:55:18.226Z,27.55
2022-08-09T05:57:50.937Z,27.38
2022-08-09T06:00:26.208Z,27.57
2022-08-09T06:02:56.934Z,27.98
2022-08-09T06:05:31.324Z,27.69
2022-08-09T06:08:19.439Z,28.32
2022-08-09T06:10:52.422Z,28.88
2022-08-09T06:13:23.125Z,28.56
2022-08-09T06:15:52.318Z,27.80
2022-08-09T06:18:25.591Z,27.17
2022-08-09T06:20:59.046Z,26.47
2022-08-09T06:23:57.746Z,25.60
2022-08-09T06:26:22.468Z,25.18
2022-08-09T06:29:00.591Z,25.18
2022-08-09T06:31:40.234Z,24.54
2022-08-09T06:34:22.750Z,24.42
2022-08-09T06:36:57.438Z,24.57
2022-08-09T06:39:48.980Z,24.29
2022-08-09T06:42:24.780Z,24.45
2022-08-09T06:44:57.324Z,24.53
2022-08-09T06:47:30.229Z,24.78
2022-08-09T06:50:19.074Z,25.07
2022-08-09T06:52:52.627Z,25.39
2022-08-09T06:55:24.158Z,25.56
2022-08-09T06:58:03.034Z,25.57
2022-08-09T07:00:55.467Z,25.75
2022-08-09T07:03:20.098Z,25.61
2022-08-09T07:06:02.952Z,25.57
2022-08-09T07:08:33.600Z,25.70
2022-08-09T07:11:06.417Z,26.09
2022-08-09T07:13:45.035Z,26.04
2022-08-09T07:16:41.232Z,26.12
2022-08-09T07:19:15.016Z,26.28
2022-08-09T07:21:55.370Z,26.53
2022-08-09T07:24:32.773Z,26.57
2022-08-09T07:27:27.251Z,26.68
2022-08-09T07:30:01.698Z,26.83
2022-08-09T07:32:33.458Z,26.95
2022-08-09T07:35:12.503Z,27.44
2022-08-09T07:37:45.554Z,27.58
2022-08-09T07:40:20.645Z,27.92
2022-08-09T07:42:58.546Z,28.14
2022-08-09T07:45:39.310Z,28.39
2022-08-09T07:48:28.451Z,28.34
2022-08-09T07:51:09.560Z,28.47
2022-08-09T07:54:06.786Z,28.94
2022-08-09T07:56:49.972Z,29.41
2022-08-09T07:59:34.531Z,29.46
2022-08-09T08:02:10.283Z,29.41
2022-08-09T08:04:48.877Z,29.84
2022-08-09T08:08:06.584Z,29.99
2022-08-09T08:10:08.548Z,29.81
2022-08-09T08:12:49.097Z,30.43
2022-08-09T08:15:23.033Z,30.52
2022-08-09T08:17:58.014Z,31.21
2022-08-09T08:20:32.621Z,31.28
2022-08-09T08:23:15.774Z,31.52
2022-08-09T08:25:49.853Z,31.85
2022-08-09T08:28:31.934Z,32.22
2022-08-09T08:31:04.863Z,32.26
2022-08-09T08:33:53.811Z,32.36
2022-08-09T08:36:29.052Z,32.46
2022-08-09T08:38:57.576Z,32.75
2022-08-09T08:41:42.223Z,32.77
2022-08-09T08:44:14.638Z,33.10
2022-08-09T08:46:59.655Z,32.64
2022-08-09T08:49:38.934Z,33.07
2022-08-09T08:55:07.287Z,33.57
2022-08-09T08:57:37.176Z,34.02
2022-08-09T09:00:20.282Z,34.47
2022-08-09T09:02:52.774Z,34.36
2022-08-09T09:05:58.152Z,34.67
2022-08-09T09:08:29.988Z,34.68
2022-08-09T09:11:04.098Z,35.43
2022-08-09T09:13:55.214Z,35.65
2022-08-09T09:16:35.610Z,35.80
2022-08-09T09:19:37.058Z,35.57
2022-08-09T09:22:03.962Z,35.94
2022-08-09T09:24:43.407Z,35.94
2022-08-09T09:28:03.106Z,36.51
2022-08-09T09:30:35.957Z,36.20
2022-08-09T09:33:16.820Z,35.90
2022-08-09T09:36:02.549Z,35.76
2022-08-09T09:38:50.627Z,36.00
2022-08-09T09:41:26.139Z,36.46
2022-08-09T09:44:11.971Z,35.93
2022-08-09T09:46:46.237Z,36.37
2022-08-09T09:49:56.004Z,36.11
2022-08-09T09:52:33.519Z,36.74
2022-08-09T09:55:27.817Z,36.75
2022-08-09T09:58:17.346Z,36.93
2022-08-09T10:00:54.736Z,36.89
2022-08-09T10:03:56.314Z,36.63
2022-08-09T10:06:32.099Z,36.36
2022-08-09T10:09:11.583Z,36.24
2022-08-09T10:12:07.616Z,35.97
2022-08-09T10:14:48.505Z,35.87
2022-08-09T10:17:51.152Z,35.99
2022-08-09T10:20:27.386Z,36.43
2022-08-09T10:23:13.599Z,37.09
2022-08-09T10:26:07.794Z,36.49
2022-08-09T10:28:35.838Z,36.48
2022-08-09T10:34:08.038Z,36.27
2022-08-09T10:36:42.234Z,36.81
2022-08-09T10:39:16.098Z,36.54
2022-08-09T10:41:48.320Z,36.27
2022-08-09T10:44:25.081Z,35.93
2022-08-09T10:47:01.389Z,35.56
2022-08-09T10:49:50.193Z,35.43
2022-08-09T10:52:43.006Z,34.98
2022-08-09T10:55:28.789Z,33.87
2022-08-09T10:58:35.060Z,32.91
2022-08-09T11:03:05.681Z,32.30
2022-08-09T11:04:20.106Z,32.07
2022-08-09T11:07:01.672Z,32.14
2022-08-09T11:09:38.906Z,32.67
2022-08-09T11:12:17.946Z,33.81
2022-08-09T11:14:54.977Z,33.83
2022-08-09T11:17:26.555Z,34.18
2022-08-09T11:20:10.482Z,34.01
2022-08-09T11:22:43.358Z,34.06
2022-08-09T11:25:16.637Z,34.56
2022-08-09T11:28:04.173Z,34.19
2022-08-09T11:30:37.941Z,34.72
2022-08-09T11:33:17.919Z,34.03
2022-08-09T11:35:56.262Z,33.13
2022-08-09T11:38:32.512Z,32.64
2022-08-09T11:41:04.788Z,32.08
2022-08-09T11:43:32.624Z,31.96
2022-08-09T11:46:05.274Z,31.69
2022-08-09T11:48:53.725Z,31.43
2022-08-09T11:53:11.404Z,31.49
2022-08-09T11:54:28.901Z,31.04
2022-08-09T11:57:47.383Z,31.17
2022-08-09T12:00:31.758Z,31.13
2022-08-09T12:03:50.337Z,31.06
2022-08-09T12:05:49.882Z,31.10
2022-08-09T12:08:21.477Z,30.68
2022-08-09T12:10:53.958Z,30.32
2022-08-09T12:14:09.786Z,30.18
2022-08-09T12:16:38.515Z,30.16
2022-08-09T12:19:10.006Z,30.10
2022-08-09T12:21:48.645Z,30.21
2022-08-09T12:24:25.806Z,30.12
2022-08-09T12:29:15.614Z,30.10
2022-08-09T12:30:01.458Z,30.07
2022-08-09T12:32:32.704Z,30.20
2022-08-09T12:35:04.601Z,30.28
2022-08-09T12:37:50.586Z,30.57
2022-08-09T12:40:27.000Z,30.55
2022-08-09T12:42:57.587Z,30.18
2022-08-09T12:45:34.204Z,30.18
2022-08-09T12:48:27.826Z,30.14
2022-08-09T12:50:59.604Z,30.00
2022-08-09T12:53:44.762Z,29.76
2022-08-09T12:56:39.727Z,29.78
2022-08-09T12:59:14.321Z,29.58
2022-08-09T13:01:48.687Z,29.43
2022-08-09T13:04:37.653Z,29.44
2022-08-09T13:07:14.380Z,29.59
2022-08-09T13:09:52.956Z,29.50
2022-08-09T13:12:24.182Z,29.40
2022-08-09T13:14:55.031Z,29.24
2022-08-09T13:17:43.797Z,28.94
2022-08-09T13:20:18.890Z,28.84
2022-08-09T13:23:02.135Z,28.73
2022-08-09T13:25:53.303Z,28.59
2022-08-09T13:28:35.611Z,28.53
2022-08-09T13:32:15.020Z,28.46
2022-08-09T13:33:56.674Z,28.52
2022-08-09T13:36:42.167Z,28.59
2022-08-09T13:41:19.374Z,28.68
2022-08-09T13:42:04.698Z,28.65
2022-08-09T13:44:35.657Z,28.67
2022-08-09T13:47:29.520Z,28.76
2022-08-09T13:49:57.569Z,28.81
2022-08-09T13:52:33.608Z,29.03
2022-08-09T13:55:07.197Z,29.24
2022-08-09T13:57:40.360Z,29.37
2022-08-09T14:00:15.463Z,29.44
2022-08-09T14:03:03.603Z,29.41
2022-08-09T14:05:59.586Z,29.45
2022-08-09T14:08:28.275Z,29.12
2022-08-09T14:10:56.514Z,29.15
2022-08-09T14:14:17.362Z,29.05
2022-08-09T14:16:16.952Z,29.01
2022-08-09T14:18:50.430Z,29.11
2022-08-09T14:21:24.311Z,29.19
2022-08-09T14:23:57.318Z,29.23
2022-08-09T14:26:33.596Z,29.08
2022-08-09T14:29:25.856Z,29.09
2022-08-09T14:31:56.134Z,29.08
2022-08-09T14:34:31.892Z,29.02
2022-08-09T14:37:08.648Z,28.93
2022-08-09T14:39:45.445Z,28.92
2022-08-09T14:42:29.072Z,28.84
2022-08-09T14:45:01.608Z,28.78
2022-08-09T14:47:57.400Z,28.70
2022-08-09T14:50:31.062Z,28.74
2022-08-09T14:53:03.286Z,28.78
2022-08-09T14:55:42.247Z,28.73
2022-08-09T14:58:15.713Z,28.77
2022-08-09T15:00:47.998Z,28.78
2022-08-09T15:03:21.383Z,28.87
2022-08-09T15:05:51.442Z,28.86
2022-08-09T15:08:23.670Z,28.86
2022-08-09T15:11:00.936Z,28.82
2022-08-09T15:13:48.542Z,28.80
2022-08-09T15:16:17.351Z,28.92
2022-08-09T15:18:48.910Z,28.91
2022-08-09T15:21:55.664Z,28.85
2022-08-09T15:24:12.867Z,28.74
2022-08-09T15:26:45.935Z,28.69
2022-08-09T15:30:56.674Z,28.73
2022-08-09T15:32:01.607Z,28.75
2022-08-09T15:34:34.486Z,28.73
2022-08-09T15:37:23.704Z,28.74
2022-08-09T15:39:54.699Z,28.68
2022-08-09T15:42:22.891Z,28.66
2022-08-09T15:44:51.570Z,28.63
2022-08-09T15:47:21.668Z,28.61
2022-08-09T15:50:03.746Z,28.59
2022-08-09T15:52:34.113Z,28.65
2022-08-09T15:55:02.912Z,28.64
2022-08-09T15:57:35.799Z,28.59
2022-08-09T16:00:25.357Z,28.53
2022-08-09T16:02:56.392Z,28.48
2022-08-09T16:05:46.986Z,28.39
2022-08-09T16:08:30.628Z,28.28
2022-08-09T16:11:01.552Z,28.15
2022-08-09T16:14:04.156Z,28.11
2022-08-09T16:16:18.877Z,28.05
2022-08-09T16:18:47.752Z,28.02
2022-08-09T16:21:17.514Z,27.98
2022-08-09T16:23:58.780Z,27.93
2022-08-09T16:26:34.669Z,27.86
2022-08-09T16:29:11.683Z,27.80
2022-08-09T16:32:17.893Z,27.75
2022-08-09T16:34:54.387Z,27.72
2022-08-09T16:37:17.972Z,27.67
2022-08-09T16:40:02.596Z,27.56
2022-08-09T16:42:34.041Z,27.49
2022-08-09T16:45:01.781Z,27.42
2022-08-09T16:48:42.959Z,27.34
2022-08-09T16:50:30.041Z,27.22
2022-08-09T16:53:02.366Z,27.12
2022-08-09T16:55:58.697Z,27.01
2022-08-09T16:58:21.367Z,26.90
2022-08-09T17:00:49.331Z,26.80
2022-08-09T17:03:22.015Z,26.69
2022-08-09T17:06:07.521Z,26.61
2022-08-09T17:08:59.837Z,26.54
2022-08-09T17:11:37.619Z,26.47
2022-08-09T17:14:25.308Z,26.39
2022-08-09T17:17:01.142Z,26.33
2022-08-09T17:20:06.203Z,26.27
2022-08-09T17:22:31.176Z,26.24
2022-08-09T17:25:04.684Z,26.21
2022-08-09T17:27:39.411Z,26.18
2022-08-09T17:30:17.360Z,26.17
2022-08-09T17:32:48.588Z,26.13
2022-08-09T17:35:18.781Z,26.09
2022-08-09T17:38:11.244Z,26.02
2022-08-09T17:40:35.833Z,26.04
2022-08-09T17:43:32.783Z,25.98
2022-08-09T17:46:03.906Z,25.92
2022-08-09T17:48:39.443Z,25.86
2022-08-09T17:51:18.087Z,25.79
2022-08-09T17:53:54.743Z,25.76
2022-08-09T17:56:35.215Z,25.68
2022-08-09T17:59:09.072Z,25.59
2022-08-09T18:02:03.682Z,25.50
2022-08-09T18:04:28.656Z,25.41
2022-08-09T18:06:59.116Z,25.28
2022-08-09T18:09:40.054Z,25.19
2022-08-09T18:12:20.423Z,25.09
2022-08-09T18:14:54.593Z,25.04
2022-08-09T18:17:27.313Z,24.96
2022-08-09T18:20:56.210Z,24.90
2022-08-09T18:23:05.124Z,24.90
2022-08-09T18:25:52.972Z,24.88
2022-08-09T18:30:39.326Z,24.88
2022-08-09T18:31:12.923Z,24.87
2022-08-09T18:33:40.692Z,24.86
2022-08-09T18:36:14.080Z,24.83
2022-08-09T18:39:00.987Z,24.83
2022-08-09T18:41:34.841Z,24.79
2022-08-09T18:44:03.760Z,24.78
2022-08-09T18:46:50.074Z,24.77
2022-08-09T18:49:23.642Z,24.80
2022-08-09T18:51:55.632Z,24.77
2022-08-09T18:54:29.884Z,25.10
2022-08-09T18:57:05.243Z,25.33
2022-08-09T18:59:37.555Z,25.44
2022-08-09T19:02:18.007Z,25.47
2022-08-09T19:04:47.640Z,25.47
2022-08-09T19:07:28.474Z,25.44
2022-08-09T19:10:14.639Z,25.38
2022-08-09T19:12:52.657Z,25.31
2022-08-09T19:15:27.591Z,25.27
2022-08-09T19:17:58.254Z,25.23
2022-08-09T19:20:26.840Z,25.18
2022-08-09T19:23:06.429Z,25.14
2022-08-09T19:26:01.130Z,25.08
2022-08-09T19:28:22.237Z,25.06
2022-08-09T19:30:56.314Z,24.99
2022-08-09T19:33:23.865Z,24.96
2022-08-09T19:35:58.545Z,24.91
2022-08-09T19:38:27.563Z,24.86
2022-08-09T19:40:57.585Z,24.81
2022-08-09T19:44:01.918Z,24.72
2022-08-09T19:46:17.711Z,24.64
2022-08-09T19:50:09.219Z,24.54
2022-08-09T19:51:55.828Z,24.48
2022-08-09T19:54:25.249Z,24.38
2022-08-09T19:56:55.470Z,24.30
2022-08-09T19:59:58.620Z,24.24
2022-08-09T20:02:15.789Z,24.20
2022-08-09T20:05:09.904Z,24.15
2022-08-09T20:08:00.194Z,24.11
2022-08-09T20:10:33.944Z,24.08
2022-08-09T20:13:05.359Z,24.05
2022-08-09T20:16:36.360Z,24.01
2022-08-09T20:18:27.559Z,23.96
2022-08-09T20:20:58.807Z,23.88
2022-08-09T20:23:39.080Z,23.84
2022-08-09T20:26:09.900Z,23.78
2022-08-09T20:28:49.725Z,23.72
2022-08-09T20:31:19.762Z,23.66
2022-08-09T20:33:52.432Z,23.65
2022-08-09T20:36:28.737Z,23.62
2022-08-09T20:39:18.639Z,23.60
2022-08-09T20:41:44.274Z,23.58
2022-08-09T20:44:16.866Z,23.58
2022-08-09T20:46:54.229Z,23.59
2022-08-09T20:49:21.838Z,23.59
2022-08-09T20:51:50.732Z,23.61
2022-08-09T20:54:18.587Z,23.60
2022-08-09T20:56:49.765Z,23.61
2022-08-09T20:59:49.973Z,23.58
2022-08-09T21:02:17.427Z,23.55
2022-08-09T21:05:51.899Z,23.52
2022-08-09T21:07:40.189Z,23.49
2022-08-09T21:10:09.288Z,23.50
2022-08-09T21:12:39.065Z,23.46
2022-08-09T21:15:12.538Z,23.43
2022-08-09T21:18:25.394Z,23.44
2022-08-09T21:20:30.264Z,23.44
2022-08-09T21:22:58.658Z,23.42
2022-08-09T21:26:02.153Z,23.41
2022-08-09T21:28:35.013Z,23.38
2022-08-09T21:31:18.181Z,23.33
2022-08-09T21:33:56.633Z,23.34
2022-08-09T21:36:28.929Z,23.32
2022-08-09T21:38:59.340Z,23.28
2022-08-09T21:42:00.365Z,23.27
2022-08-09T21:44:32.866Z,23.27
2022-08-09T21:47:04.346Z,23.27
2022-08-09T21:49:39.450Z,23.25
2022-08-09T21:52:15.072Z,23.22
2022-08-09T21:55:03.621Z,23.12
2022-08-09T21:57:58.555Z,23.03
2022-08-09T22:00:32.422Z,22.95
2022-08-09T22:03:05.530Z,22.85
2022-08-09T22:05:36.680Z,22.80
2022-08-09T22:08:11.893Z,22.76
2022-08-09T22:11:01.063Z,22.70
2022-08-09T22:13:34.100Z,22.67
2022-08-09T22:16:04.340Z,22.62
2022-08-09T22:18:34.954Z,22.60
2022-08-09T22:21:09.850Z,22.53
2022-08-09T22:23:59.663Z,22.50
2022-08-09T22:26:37.950Z,22.43
2022-08-09T22:29:09.912Z,22.39
2022-08-09T22:31:50.615Z,22.36
2022-08-09T22:34:28.159Z,22.35
2022-08-09T22:36:58.955Z,22.35
2022-08-09T22:39:57.738Z,22.32
2022-08-09T22:42:21.131Z,22.33
2022-08-09T22:48:06.018Z,22.31
2022-08-09T22:48:10.455Z,22.27
2022-08-09T22:50:31.772Z,22.24
2022-08-09T22:53:03.763Z,22.21
2022-08-09T22:56:05.920Z,22.21
2022-08-09T22:58:32.794Z,22.19
2022-08-09T23:01:03.700Z,22.15
2022-08-09T23:04:03.992Z,22.17
2022-08-09T23:06:35.229Z,22.15
2022-08-09T23:09:03.900Z,22.12
2022-08-09T23:11:31.435Z,22.11
2022-08-09T23:13:59.682Z,22.05
2022-08-09T23:16:32.163Z,22.06
2022-08-09T23:19:00.000Z,22.01
2022-08-09T23:21:36.363Z,21.94
2022-08-09T23:24:07.315Z,21.91
2022-08-09T23:26:38.214Z,21.91
2022-08-09T23:29:09.923Z,21.85
2022-08-09T23:31:37.783Z,21.81
2022-08-09T23:34:05.794Z,21.77
2022-08-09T23:36:34.898Z,21.73
2022-08-09T23:39:03.519Z,21.70
2022-08-09T23:41:33.456Z,21.68
2022-08-09T23:44:04.755Z,21.66
2022-08-09T23:46:32.983Z,21.64
2022-08-09T23:49:01.660Z,21.64
2022-08-09T23:51:29.674Z,21.63
2022-08-09T23:54:02.178Z,21.62
2022-08-09T23:56:53.692Z,21.59
2022-08-09T23:59:20.623Z,21.57
